• Join FlightAware (Why Join?)
  • Login
  • US Flag 
10:19PM EDT


 

Airport Tracker/Info


-or-


 

Live Flight TrackerFlight Track Log ✈ AWE997 ✈ 16-Jul-2013 ✈ KORD - KPHL

Flight Track Log - Related Links

Times and Time Zones

All times are in EDT time to prevent confusion due to time zone crossing. See the AWE997 flight status page for this flight to view local times or setup timezone preferences in your user account.

Time Position Orientation Groundspeed Altitude Reporting Facility
EDT Latitude Longitude Course Direction KTS MPH feet Rate Location/Type
10:53AM 41.9960 -87.9390 325° Northwest 166 191 1,100  Level FlightAware
10:53AM 42.0050 -87.9430 342° North 168 193 1,600 1,740 Climbing FlightAware
10:54AM 42.0250 -87.9320 22° Northeast 189 217 2,300 1,200 Climbing FlightAware
10:54AM 42.0480 -87.9080 38° Northeast 220 253 2,800 960 Climbing FlightAware
10:55AM 42.0690 -87.8840 40° Northeast 246 283 3,200 1,500 Climbing FlightAware
10:55AM 42.0760 -87.8640 65° Northeast 248 285 3,800 2,280 Climbing FlightAware
10:55AM 42.0790 -87.8170 85° East 257 296 4,900 1,980 Climbing FlightAware
10:56AM 42.0820 -87.7690 85° East 282 325 5,700 1,920 Climbing FlightAware
10:56AM 42.0850 -87.7210 85° East 290 334 6,700 2,340 Climbing FlightAware
10:57AM 42.0880 -87.6700 85° East 289 333 7,900 2,400 Climbing FlightAware
10:57AM 42.0810 -87.6060 98° East 285 328 9,300 2,280 Climbing FlightAware
10:57AM 42.0770 -87.5890 108° East 286 329 9,700 1,980 Climbing FlightAware
10:58AM 42.0580 -87.5110 108° East 294 338 11,200 1,800 Climbing FlightAware
10:59AM 42.0430 -87.4520 109° East 306 352 12,100 1,260 Climbing FlightAware
10:59AM 42.0220 -87.3690 109° East 338 389 12,900 900 Climbing FlightAware
11:00AM 42.0010 -87.2850 109° East 368 423 13,400 1,020 Climbing FlightAware
11:01AM 41.9790 -87.1960 108° East 380 437 14,300 1,500 Climbing FlightAware
11:02AM 41.9540 -87.0960 109° East 386 444 15,600 1,620 Climbing FlightAware
11:02AM 41.9470 -86.9560 94° East 402 463 17,000 1,200 Climbing FlightAware
11:03AM 41.9490 -86.8550 88° East 417 480 17,600 900 Climbing FlightAware
11:04AM 41.9500 -86.7480 89° East 434 499 18,200 900 Climbing FlightAware
11:05AM 41.9520 -86.6290 89° East 445 512 18,900 840 Climbing FlightAware
11:05AM 41.9530 -86.5170 89° East 456 525 19,400 900 Climbing FlightAware
11:06AM 41.9540 -86.4100 89° East 461 531 20,100 1,260 Climbing FlightAware
11:07AM 41.9560 -86.2630 89° East 458 527 21,300 1,500 Climbing FlightAware
11:08AM 41.9470 -86.1120 95° East 453 521 22,700 1,680 Climbing FlightAware
11:08AM 41.9370 -86.0040 97° East 444 511 23,900 1,500 Climbing FlightAware
11:09AM 41.9270 -85.9000 97° East 444 511 24,700 720 Climbing FlightAware
11:10AM 41.9140 -85.7580 97° East 463 533 25,000 600 Climbing FlightAware
11:11AM 41.8870 -85.4810 97° East 474 545 26,200 840 Climbing FlightAware
11:12AM 41.8740 -85.3510 98° East 472 543 27,000 1,200 Climbing FlightAware
11:13AM 41.8580 -85.1910 98° East 465 535 28,200 1,260 Climbing FlightAware
11:14AM 41.8470 -85.0820 98° East 460 529 29,100 1,200 Climbing FlightAware
11:14AM 41.8350 -84.9680 98° East 460 529 29,800 1,140 Climbing FlightAware
11:15AM 41.8230 -84.8550 98° East 459 528 30,600 1,080 Climbing FlightAware
11:16AM 41.8090 -84.7210 98° East 457 526 31,400 1,380 Climbing FlightAware
11:17AM 41.7960 -84.6000 98° East 443 510 32,800 1,200 Climbing FlightAware
11:17AM 41.7800 -84.5030 102° East 453 521 33,000 120 Climbing FlightAware
11:18AM 41.7560 -84.3830 105° East 462 532 33,000  Level FlightAware
11:19AM 41.7310 -84.2600 105° East 461 531 33,000  Level FlightAware
11:19AM 41.7060 -84.1380 105° East 464 534 33,000  Level FlightAware
11:20AM 41.6860 -84.0400 105° East 463 533 33,000  Level FlightAware
11:21AM 41.6590 -83.9110 106° East 462 532 33,000  Level FlightAware
11:21AM 41.6350 -83.7950 105° East 462 532 33,000  Level FlightAware
11:22AM 41.6110 -83.6770 105° East 465 535 33,000  Level FlightAware
11:23AM 41.5860 -83.5600 106° East 465 535 33,000  Level FlightAware
11:23AM 41.5640 -83.4560 106° East 466 536 33,000  Level FlightAware
11:24AM 41.5390 -83.3390 106° East 464 534 33,000  Level FlightAware
11:25AM 41.5150 -83.2240 106° East 465 535 33,000  Level FlightAware
11:25AM 41.4920 -83.1170 106° East 471 542 33,000  Level FlightAware
11:26AM 41.4710 -83.0190 106° East 472 543 33,000  Level FlightAware
11:27AM 41.4390 -82.8960 109° East 473 544 33,000  Level FlightAware
11:27AM 41.4110 -82.7850 109° East 471 542 33,000  Level FlightAware
11:28AM 41.3870 -82.6900 109° East 470 541 33,000  Level FlightAware
11:29AM 41.3550 -82.5670 109° East 472 543 33,000  Level FlightAware
11:30AM 41.3260 -82.4550 109° East 472 543 33,000  Level FlightAware
11:30AM 41.2970 -82.3430 109° East 473 544 33,000  Level FlightAware
11:31AM 41.2650 -82.2190 109° East 473 544 33,000  Level FlightAware
11:32AM 41.2320 -82.0960 110° East 473 544 33,000  Level FlightAware
11:32AM 41.2020 -81.9800 109° East 471 542 33,000  Level FlightAware
11:33AM 41.1740 -81.8730 109° East 471 542 33,000  Level FlightAware
11:34AM 41.1440 -81.7630 110° East 470 541 33,000  Level FlightAware
11:34AM 41.1140 -81.6480 109° East 470 541 33,000  Level FlightAware
11:35AM 41.0800 -81.5230 110° East 470 541 33,000  Level FlightAware
11:36AM 41.0420 -81.3840 110° East 470 541 33,000  Level FlightAware
11:37AM 41.0110 -81.2690 110° East 470 541 33,000  Level FlightAware
11:38AM 40.9760 -81.1410 110° East 471 542 33,000  Level FlightAware
11:38AM 40.9490 -81.0420 110° East 471 542 33,000  Level FlightAware
11:39AM 40.9130 -80.9010 109° East 468 539 33,000  Level FlightAware
11:40AM 40.8940 -80.7780 102° East 467 537 33,000  Level FlightAware
11:40AM 40.8790 -80.6650 100° East 466 536 33,000  Level FlightAware
11:41AM 40.8600 -80.5490 102° East 467 537 33,000  Level FlightAware
11:42AM 40.8300 -80.4470 111° Southeast 466 536 33,000  Level FlightAware
11:42AM 40.7940 -80.3310 112° Southeast 468 539 33,000  Level FlightAware
11:43AM 40.7580 -80.2160 112° Southeast 469 540 33,000  Level FlightAware
11:44AM 40.7230 -80.1050 113° Southeast 470 541 33,000  Level FlightAware
11:48AM 40.5430 -79.5320 112° Southeast 469 540 33,000  Level FlightAware
11:49AM 40.5040 -79.3820 109° East 468 539 33,000  Level FlightAware
11:49AM 40.4890 -79.2660 100° East 467 537 33,000  Level FlightAware
11:50AM 40.4690 -79.1140 100° East 466 536 33,000  Level FlightAware
11:51AM 40.4510 -78.9770 100° East 464 534 33,000  Level FlightAware
11:51AM 40.4400 -78.8990 100° East 465 535 33,000 -720 Level FlightAware
11:52AM 40.4250 -78.7850 100° East 468 539 32,200 -1,380 Descending FlightAware
11:53AM 40.4110 -78.6760 100° East 472 543 31,200 -1,620 Descending FlightAware
11:53AM 40.3910 -78.5330 100° East 474 545 29,900 -1,680 Descending FlightAware
11:54AM 40.3760 -78.4200 100° East 476 548 28,800 -1,680 Descending FlightAware
11:55AM 40.3620 -78.3190 100° East 473 544 27,800 -1,740 Descending FlightAware
11:55AM 40.3450 -78.1960 100° East 467 537 26,500 -1,260 Descending FlightAware
11:56AM 40.3250 -78.0470 100° East 479 551 25,700 -1,020 Descending FlightAware
11:57AM 40.3130 -77.9380 98° East 490 564 25,000 -720 Descending FlightAware
11:58AM 40.3120 -77.8280 91° East 491 565 24,900 -600 Descending FlightAware
11:58AM 40.3110 -77.7100 91° East 489 563 24,200 -1,320 Descending FlightAware
11:59AM 40.3090 -77.5800 91° East 476 548 23,100 -1,680 Descending FlightAware
12:00PM 40.3080 -77.4480 91° East 464 534 21,800 -1,800 Descending FlightAware
12:00PM 40.3060 -77.3600 92° East 448 516 20,700 -1,800 Descending FlightAware
12:01PM 40.3040 -77.2240 91° East 419 482 19,300 -1,740 Descending FlightAware
12:02PM 40.3030 -77.1450 91° East 404 465 18,300 -1,080 Descending FlightAware
12:02PM 40.2960 -77.0470 95° East 400 460 18,000 -240 Descending FlightAware
12:03PM 40.2730 -76.9430 106° East 406 467 18,000 -360 Level FlightAware
12:04PM 40.2510 -76.8470 107° East 405 466 17,500 -1,200 Descending FlightAware
12:05PM 40.2250 -76.7380 107° East 402 463 16,300 -1,680 Descending FlightAware
12:05PM 40.2209 -76.7192 106° East 403 464 16,000 -1,860 Descending FlightAware ADS-B
12:05PM 40.2020 -76.6389 107° East 398 458 15,000 -1,800 Descending FlightAware ADS-B
12:06PM 40.1825 -76.5558 107° East 395 455 13,900 -1,800 Descending FlightAware ADS-B
12:06PM 40.1659 -76.4855 107° East 391 450 13,000 -1,800 Descending FlightAware ADS-B
12:07PM 40.1500 -76.4182 107° East 381 438 12,100 -1,800 Descending FlightAware ADS-B
12:07PM 40.1341 -76.3514 107° East 379 436 11,200 -1,560 Descending FlightAware ADS-B
12:08PM 40.1242 -76.3090 107° East 378 435 10,800 -1,020 Descending FlightAware ADS-B
12:08PM 40.1198 -76.2818 102° East 377 434 10,700  Descending FlightAware ADS-B
12:09PM 40.1142 -76.2058 95° East 375 432 10,800  Climbing FlightAware ADS-B
12:09PM 40.1095 -76.1378 95° East 375 432 10,700 -600 Descending FlightAware ADS-B
12:10PM 40.1047 -76.0679 95° East 372 428 10,200 -1,080 Descending FlightAware ADS-B
12:10PM 40.1023 -76.0343 95° East 371 427 9,900 -840 Descending FlightAware ADS-B
12:10PM 40.1000 -76.0001 95° East 369 425 9,800 -420 Descending FlightAware ADS-B
12:10PM 40.0974 -75.9643 95° East 362 417 9,700 -180 Descending FlightAware ADS-B
12:11PM 40.0944 -75.9205 95° East 352 405 9,700 120 Level FlightAware ADS-B
12:11PM 40.0916 -75.8824 95° East 325 374 9,800  Climbing FlightAware ADS-B
12:11PM 40.0894 -75.8525 95° East 311 358 9,700 -600 Descending FlightAware ADS-B
12:11PM 40.0873 -75.8236 95° East 301 346 9,500 -1,140 Descending FlightAware ADS-B
12:12PM 40.0852 -75.7936 95° East 296 341 9,100 -1,260 Descending FlightAware ADS-B
12:12PM 40.0832 -75.7643 95° East 291 335 8,800 -1,200 Descending FlightAware ADS-B
12:12PM 40.0810 -75.7332 95° East 289 333 8,400 -1,380 Descending FlightAware ADS-B
12:13PM 40.0795 -75.7031 94° East 284 327 8,000 -1,320 Descending FlightAware ADS-B
12:13PM 40.0786 -75.6770 93° East 284 327 7,700 -1,020 Descending FlightAware ADS-B
12:13PM 40.0775 -75.6512 93° East 283 326 7,500 -1,200 Descending FlightAware ADS-B
12:13PM 40.0763 -75.6246 93° East 283 326 7,100 -1,320 Descending FlightAware ADS-B
12:14PM 40.0749 -75.5956 94° East 281 323 6,800 -780 Descending FlightAware ADS-B
12:14PM 40.0737 -75.5700 93° East 282 325 6,700 -240 Descending FlightAware ADS-B
12:14PM 40.0724 -75.5419 93° East 283 326 6,700  Level FlightAware ADS-B
12:15PM 40.0709 -75.5107 94° East 283 326 6,700  Level FlightAware ADS-B
12:15PM 40.0696 -75.4837 94° East 282 325 6,700 -240 Level FlightAware ADS-B
12:15PM 40.0686 -75.4628 94° East 280 322 6,600 -1,080 Descending FlightAware ADS-B
12:15PM 40.0673 -75.4363 94° East 277 319 6,200 -1,380 Descending FlightAware ADS-B
12:15PM 40.0660 -75.4116 94° East 279 321 5,900 -840 Descending FlightAware ADS-B
12:16PM 40.0648 -75.3859 93° East 278 320 5,800 -360 Descending FlightAware ADS-B
12:16PM 40.0629 -75.3478 94° East 280 322 5,700 -180 Descending FlightAware ADS-B
12:16PM 40.0616 -75.3225 94° East 279 321 5,700  Level FlightAware ADS-B
12:17PM 40.0603 -75.2966 94° East 278 320 5,700  Level FlightAware ADS-B
12:17PM 40.0590 -75.2717 94° East 275 316 5,700 180 Level FlightAware ADS-B
12:17PM 40.0577 -75.2460 94° East 274 315 5,800  Climbing FlightAware ADS-B
12:17PM 40.0564 -75.2203 94° East 276 318 5,700 -240 Descending FlightAware ADS-B
12:18PM 40.0550 -75.1926 94° East 277 319 5,700  Level FlightAware ADS-B
12:18PM 40.0545 -75.1876 97° East 278 320 5,700  Level FlightAware ADS-B
12:18PM 40.0537 -75.1826 102° East 279 321 5,700  Level FlightAware ADS-B
12:18PM 40.0520 -75.1750 106° East 281 323 5,700 600 Level FlightAware ADS-B
12:18PM 40.0496 -75.1648 107° East 283 326 5,800 600 Climbing FlightAware ADS-B
12:18PM 40.0476 -75.1597 117° Southeast 284 327 5,800  Level FlightAware ADS-B
12:18PM 40.0396 -75.1353 113° Southeast 284 327 5,800 -300 Level FlightAware ADS-B
12:18PM 40.0360 -75.1243 113° Southeast 286 329 5,700 -600 Descending FlightAware ADS-B
12:18PM 40.0342 -75.1196 117° Southeast 285 328 5,700  Level FlightAware ADS-B
12:18PM 40.0321 -75.1150 121° Southeast 284 327 5,700  Level FlightAware ADS-B
12:19PM 40.0288 -75.1089 125° Southeast 282 325 5,700  Level FlightAware ADS-B
12:19PM 40.0246 -75.1022 129° Southeast 277 319 5,700  Level FlightAware ADS-B
12:19PM 40.0116 -75.0840 133° Southeast 265 305 5,700 -420 Level FlightAware ADS-B
12:19PM 39.9966 -75.0634 134° Southeast 254 292 5,500 -660 Descending FlightAware ADS-B
12:20PM 39.9822 -75.0437 134° Southeast 241 277 5,300 -780 Descending FlightAware ADS-B
12:20PM 39.9775 -75.0381 138° Southeast 239 275 5,200 -1,380 Descending FlightAware ADS-B
12:20PM 39.9743 -75.0352 145° Southeast 240 276 5,100 -1,140 Descending FlightAware ADS-B
12:20PM 39.9673 -75.0309 155° Southeast 239 275 5,000 -600 Descending FlightAware ADS-B
12:20PM 39.9637 -75.0297 166° South 236 272 5,000 -900 Level FlightAware ADS-B
12:20PM 39.9518 -75.0283 175° South 232 267 4,800 -1,200 Descending FlightAware ADS-B
12:20PM 39.9473 -75.0287 184° South 231 266 4,700 -1,200 Descending FlightAware ADS-B
12:20PM 39.9418 -75.0297 188° South 229 264 4,600 -960 Descending FlightAware ADS-B
12:20PM 39.9342 -75.0316 191° South 224 258 4,500 -720 Descending FlightAware ADS-B
12:20PM 39.9234 -75.0358 197° South 215 247 4,400 -840 Descending FlightAware ADS-B
12:21PM 39.9198 -75.0376 201° Southwest 212 244 4,300 -900 Descending FlightAware ADS-B
12:21PM 39.9171 -75.0392 204° Southwest 209 241 4,300 -600 Level FlightAware ADS-B
12:21PM 39.9118 -75.0442 216° Southwest 207 238 4,200 -1,140 Descending FlightAware ADS-B
12:21PM 39.9095 -75.0475 228° Southwest 199 229 4,100 -1,500 Descending FlightAware ADS-B
12:21PM 39.9075 -75.0523 241° Southwest 192 221 4,000 -780 Descending FlightAware ADS-B
12:21PM 39.9066 -75.0563 254° West 184 212 4,000 -780 Level FlightAware ADS-B
12:21PM 39.9060 -75.0602 259° West 180 207 3,900 -1,140 Descending FlightAware ADS-B
12:21PM 39.9050 -75.0676 260° West 171 197 3,800 -1,080 Descending FlightAware ADS-B
12:21PM 39.9027 -75.0831 259° West 163 188 3,500 -1,200 Descending FlightAware ADS-B
12:22PM 39.9001 -75.0975 257° West 157 181 3,200 -1,800 Descending FlightAware ADS-B
12:22PM 39.8975 -75.1119 257° West 165 190 2,600 -2,280 Descending FlightAware ADS-B
12:22PM 39.8954 -75.1232 256° West 171 197 2,200 -2,040 Descending FlightAware ADS-B
12:22PM 39.8928 -75.1353 254° West 173 199 1,800 -2,040 Descending FlightAware ADS-B
12:22PM 39.8902 -75.1474 254° West 174 200 1,400 -2,040 Descending FlightAware ADS-B
12:23PM 39.8872 -75.1630 256° West 180 207 900 -1,620 Descending FlightAware ADS-B
12:23PM 39.8850 -75.1744 256° West 173 199 700 -1,200 Descending FlightAware ADS-B
12:23PM 39.8820 -75.1890 255° West 161 185 400 -1,320 Descending FlightAware ADS-B
12:23PM 39.8813 -75.1923 255° West 158 182 300 -300 Descending FlightAware ADS-B
12:24PM 39.8750 -75.2230 255° West 153 176 200 -180 Descending FlightAware